createdAt,value
2023-04-25T00:00:36.141Z,0
2023-04-25T00:01:52.273Z,0
2023-04-25T00:03:08.397Z,0
2023-04-25T00:04:24.541Z,0
2023-04-25T00:05:40.686Z,0
2023-04-25T00:06:56.819Z,0
2023-04-25T00:08:13.014Z,0
2023-04-25T00:09:28.209Z,0
2023-04-25T00:10:44.360Z,0
2023-04-25T00:12:00.492Z,0
2023-04-25T00:13:16.618Z,0
2023-04-25T00:14:32.765Z,0
2023-04-25T00:15:48.897Z,0
2023-04-25T00:17:05.038Z,0
2023-04-25T00:18:21.176Z,0
2023-04-25T00:19:37.312Z,0
2023-04-25T00:20:53.449Z,0
2023-04-25T00:22:09.581Z,0
2023-04-25T00:23:25.720Z,0
2023-04-25T00:24:41.855Z,0
2023-04-25T00:25:57.979Z,0
2023-04-25T00:27:14.126Z,0
2023-04-25T00:28:30.264Z,0
2023-04-25T00:29:46.405Z,0
2023-04-25T00:31:02.540Z,0
2023-04-25T00:32:18.675Z,0
2023-04-25T00:33:34.798Z,0
2023-04-25T00:34:50.935Z,0
2023-04-25T00:36:07.082Z,0
2023-04-25T00:37:23.209Z,0
2023-04-25T00:38:39.341Z,0
2023-04-25T00:39:55.482Z,0
2023-04-25T00:41:11.680Z,0
2023-04-25T00:42:26.922Z,0
2023-04-25T00:43:42.110Z,0
2023-04-25T00:44:57.277Z,0
2023-04-25T00:46:13.413Z,0
2023-04-25T00:47:29.531Z,0
2023-04-25T00:48:45.672Z,0
2023-04-25T00:50:01.796Z,0
2023-04-25T00:51:17.950Z,0
2023-04-25T00:52:34.079Z,0
2023-04-25T00:53:50.221Z,0
2023-04-25T00:55:06.340Z,0
2023-04-25T00:56:22.491Z,0
2023-04-25T00:57:38.631Z,0
2023-04-25T00:58:54.758Z,0
2023-04-25T01:00:10.902Z,0
2023-04-25T01:01:27.022Z,0
2023-04-25T01:02:43.162Z,0
2023-04-25T01:03:59.305Z,0
2023-04-25T01:05:15.439Z,0
2023-04-25T01:06:31.575Z,0
2023-04-25T01:07:47.702Z,0
2023-04-25T01:09:03.844Z,0
2023-04-25T01:10:19.998Z,0
2023-04-25T01:11:36.125Z,0
2023-04-25T01:12:52.267Z,0
2023-04-25T01:14:08.390Z,0
2023-04-25T01:15:24.514Z,0
2023-04-25T01:16:40.672Z,0
2023-04-25T01:17:56.815Z,0
2023-04-25T01:19:12.941Z,0
2023-04-25T01:20:29.079Z,0
2023-04-25T01:21:45.214Z,0
2023-04-25T01:23:01.356Z,0
2023-04-25T01:24:17.483Z,0
2023-04-25T01:25:33.615Z,0
2023-04-25T01:26:49.750Z,0
2023-04-25T01:28:05.889Z,0
2023-04-25T01:29:22.027Z,0
2023-04-25T01:30:38.173Z,0
2023-04-25T01:31:54.363Z,0
2023-04-25T01:33:09.618Z,0
2023-04-25T01:34:24.823Z,0
2023-04-25T01:35:40.954Z,0
2023-04-25T01:36:57.101Z,0
2023-04-25T01:38:13.227Z,0
2023-04-25T01:39:29.372Z,0
2023-04-25T01:40:45.510Z,0
2023-04-25T01:42:01.630Z,0
2023-04-25T01:43:17.774Z,0
2023-04-25T01:44:33.907Z,0
2023-04-25T01:45:50.059Z,0
2023-04-25T01:47:06.190Z,0
2023-04-25T01:48:22.309Z,0
2023-04-25T01:49:38.448Z,0
2023-04-25T01:50:54.583Z,0
2023-04-25T01:52:10.736Z,0
2023-04-25T01:53:26.865Z,0
2023-04-25T01:54:43.009Z,0
2023-04-25T01:55:59.138Z,0
2023-04-25T01:57:15.265Z,0
2023-04-25T01:58:31.410Z,0
2023-04-25T01:59:47.551Z,0
2023-04-25T02:01:03.675Z,0
2023-04-25T02:02:19.814Z,0
2023-04-25T02:03:35.938Z,0
2023-04-25T02:04:52.086Z,0
2023-04-25T02:06:08.294Z,0
2023-04-25T02:07:23.518Z,0
2023-04-25T02:08:38.741Z,0
2023-04-25T02:09:54.859Z,0
2023-04-25T02:11:11.006Z,0
2023-04-25T02:12:27.131Z,0
2023-04-25T02:13:43.274Z,0
2023-04-25T02:14:59.402Z,0
2023-04-25T02:16:15.546Z,0
2023-04-25T02:17:31.669Z,0
2023-04-25T02:18:47.807Z,0
2023-04-25T02:20:03.935Z,0
2023-04-25T02:21:20.101Z,0
2023-04-25T02:22:36.234Z,0
2023-04-25T02:23:52.363Z,0
2023-04-25T02:25:08.494Z,0
2023-04-25T02:26:24.623Z,0
2023-04-25T02:27:40.778Z,0
2023-04-25T02:28:56.900Z,0
2023-04-25T02:30:13.045Z,0
2023-04-25T02:31:29.174Z,0
2023-04-25T02:32:45.315Z,0
2023-04-25T02:34:01.458Z,0
2023-04-25T02:35:17.582Z,0
2023-04-25T02:36:33.717Z,0
2023-04-25T02:37:49.857Z,0
2023-04-25T02:39:05.985Z,0
2023-04-25T02:40:22.187Z,0
2023-04-25T02:41:37.433Z,0
2023-04-25T02:42:52.641Z,0
2023-04-25T02:44:08.789Z,0
2023-04-25T02:45:24.911Z,0
2023-04-25T02:46:41.052Z,0
2023-04-25T02:47:57.184Z,0
2023-04-25T02:49:13.317Z,0
2023-04-25T02:50:29.466Z,0
2023-04-25T02:51:45.587Z,0
2023-04-25T02:53:01.728Z,0
2023-04-25T02:54:17.854Z,0
2023-04-25T02:55:34.000Z,0
2023-04-25T02:56:50.140Z,0
2023-04-25T02:58:06.282Z,0
2023-04-25T02:59:22.416Z,0
2023-04-25T03:00:38.552Z,0
2023-04-25T03:01:54.670Z,0
2023-04-25T03:03:10.832Z,0
2023-04-25T03:04:26.954Z,0
2023-04-25T03:05:43.086Z,0
2023-04-25T03:06:59.227Z,0
2023-04-25T03:08:15.350Z,0
2023-04-25T03:09:31.502Z,0
2023-04-25T03:10:47.628Z,0
2023-04-25T03:12:03.779Z,0
2023-04-25T03:13:19.901Z,0
2023-04-25T03:14:36.095Z,0
2023-04-25T03:15:51.335Z,0
2023-04-25T03:17:07.531Z,0
2023-04-25T03:18:22.724Z,0
2023-04-25T03:19:38.874Z,0
2023-04-25T03:20:55.014Z,0
2023-04-25T03:22:11.133Z,0
2023-04-25T03:23:27.281Z,0
2023-04-25T03:24:43.407Z,0
2023-04-25T03:25:59.546Z,0
2023-04-25T03:27:15.686Z,0
2023-04-25T03:28:31.827Z,0
2023-04-25T03:29:47.963Z,0
2023-04-25T03:31:04.089Z,0
2023-04-25T03:32:20.243Z,0
2023-04-25T03:33:36.365Z,0
2023-04-25T03:34:52.493Z,0
2023-04-25T03:36:08.631Z,0
2023-04-25T03:37:24.760Z,0
2023-04-25T03:38:40.921Z,0
2023-04-25T03:39:57.058Z,0
2023-04-25T03:41:13.190Z,0
2023-04-25T03:42:29.323Z,0
2023-04-25T03:43:45.441Z,0
2023-04-25T03:45:01.589Z,0
2023-04-25T03:46:17.732Z,0
2023-04-25T03:47:33.871Z,0
2023-04-25T03:48:49.994Z,0
2023-04-25T03:50:06.189Z,0
2023-04-25T03:51:21.438Z,0
2023-04-25T03:52:36.635Z,0
2023-04-25T03:53:51.786Z,0
2023-04-25T03:55:07.925Z,0
2023-04-25T03:56:24.060Z,0
2023-04-25T03:57:40.181Z,0
2023-04-25T03:58:56.316Z,0
2023-04-25T04:00:12.475Z,0
2023-04-25T04:01:28.594Z,0
2023-04-25T04:02:44.739Z,0
2023-04-25T04:04:00.856Z,0
2023-04-25T04:05:16.995Z,0
2023-04-25T04:06:33.143Z,0
2023-04-25T04:07:49.275Z,0
2023-04-25T04:09:05.410Z,0
2023-04-25T04:10:21.536Z,0
2023-04-25T04:11:37.676Z,0
2023-04-25T04:12:53.827Z,0
2023-04-25T04:14:09.965Z,0
2023-04-25T04:15:26.089Z,0
2023-04-25T04:16:42.230Z,0
2023-04-25T04:17:58.367Z,0
2023-04-25T04:19:14.499Z,0
2023-04-25T04:20:30.635Z,0
2023-04-25T04:21:46.765Z,0
2023-04-25T04:23:02.916Z,0
2023-04-25T04:24:19.049Z,0
2023-04-25T04:25:35.194Z,0
2023-04-25T04:26:51.330Z,0
2023-04-25T04:28:07.460Z,0
2023-04-25T04:29:23.589Z,0
2023-04-25T04:30:39.711Z,0
2023-04-25T04:31:55.866Z,5
2023-04-25T04:33:12.007Z,5
2023-04-25T04:34:28.129Z,5
2023-04-25T04:35:44.277Z,5
2023-04-25T04:37:00.395Z,5
2023-04-25T04:38:16.550Z,5
2023-04-25T04:39:32.677Z,5
2023-04-25T04:40:48.868Z,5
2023-04-25T04:42:04.113Z,5
2023-04-25T04:43:19.316Z,5
2023-04-25T04:44:35.446Z,5
2023-04-25T04:45:51.588Z,5
2023-04-25T04:47:07.712Z,11
2023-04-25T04:48:23.873Z,11
2023-04-25T04:49:39.999Z,11
2023-04-25T04:50:56.137Z,11
2023-04-25T04:52:12.271Z,11
2023-04-25T04:53:28.395Z,11
2023-04-25T04:54:44.558Z,11
2023-04-25T04:56:00.677Z,16
2023-04-25T04:57:16.808Z,16
2023-04-25T04:58:32.944Z,16
2023-04-25T04:59:49.073Z,16
2023-04-25T05:01:05.224Z,16
2023-04-25T05:02:21.354Z,22
2023-04-25T05:03:37.494Z,22
2023-04-25T05:04:53.629Z,22
2023-04-25T05:06:09.773Z,22
2023-04-25T05:07:25.908Z,22
2023-04-25T05:08:42.050Z,28
2023-04-25T05:09:58.177Z,28
2023-04-25T05:11:14.305Z,28
2023-04-25T05:12:30.451Z,28
2023-04-25T05:13:46.599Z,33
2023-04-25T05:15:02.793Z,33
2023-04-25T05:16:18.017Z,33
2023-04-25T05:17:33.230Z,33
2023-04-25T05:18:49.372Z,33
2023-04-25T05:20:05.502Z,33
2023-04-25T05:21:21.623Z,33
2023-04-25T05:22:37.754Z,39
2023-04-25T05:23:53.902Z,56
2023-04-25T05:25:10.039Z,61
2023-04-25T05:26:26.182Z,73
2023-04-25T05:27:42.314Z,73
2023-04-25T05:28:58.445Z,73
2023-04-25T05:30:14.598Z,67
2023-04-25T05:31:30.720Z,61
2023-04-25T05:32:46.857Z,56
2023-04-25T05:34:02.991Z,45
2023-04-25T05:35:19.136Z,39
2023-04-25T05:36:35.267Z,45
2023-04-25T05:37:51.394Z,45
2023-04-25T05:39:07.527Z,50
2023-04-25T05:40:23.662Z,67
2023-04-25T05:41:39.801Z,61
2023-04-25T05:42:55.961Z,61
2023-04-25T05:44:12.090Z,50
2023-04-25T05:45:28.220Z,45
2023-04-25T05:46:44.356Z,50
2023-04-25T05:48:00.484Z,56
2023-04-25T05:49:16.681Z,56
2023-04-25T05:50:31.960Z,56
2023-04-25T05:51:48.140Z,61
2023-04-25T05:53:03.357Z,78
2023-04-25T05:54:19.484Z,90
2023-04-25T05:55:35.621Z,95
2023-04-25T05:56:51.739Z,95
2023-04-25T05:58:07.885Z,101
2023-04-25T05:59:24.038Z,118
2023-04-25T06:00:40.167Z,129
2023-04-25T06:01:56.290Z,123
2023-04-25T06:03:12.422Z,123
2023-04-25T06:04:28.559Z,123
2023-04-25T06:05:44.708Z,106
2023-04-25T06:07:00.845Z,84
2023-04-25T06:08:16.977Z,78
2023-04-25T06:09:33.112Z,90
2023-04-25T06:10:49.249Z,101
2023-04-25T06:12:05.381Z,118
2023-04-25T06:13:21.514Z,140
2023-04-25T06:14:37.663Z,163
2023-04-25T06:15:53.790Z,174
2023-04-25T06:17:09.920Z,135
2023-04-25T06:18:26.067Z,163
2023-04-25T06:19:42.201Z,151
2023-04-25T06:20:58.328Z,140
2023-04-25T06:22:14.482Z,135
2023-04-25T06:23:30.607Z,157
2023-04-25T06:24:46.809Z,163
2023-04-25T06:26:02.046Z,157
2023-04-25T06:27:17.256Z,146
2023-04-25T06:28:33.406Z,129
2023-04-25T06:29:49.525Z,123
2023-04-25T06:31:05.671Z,135
2023-04-25T06:32:21.798Z,157
2023-04-25T06:33:37.937Z,163
2023-04-25T06:34:54.077Z,163
2023-04-25T06:36:10.221Z,202
2023-04-25T06:37:26.352Z,219
2023-04-25T06:38:42.486Z,219
2023-04-25T06:39:58.618Z,236
2023-04-25T06:41:14.773Z,298
2023-04-25T06:42:30.902Z,275
2023-04-25T06:43:47.021Z,208
2023-04-25T06:45:03.157Z,241
2023-04-25T06:46:19.292Z,236
2023-04-25T06:47:35.441Z,202
2023-04-25T06:48:51.573Z,180
2023-04-25T06:50:07.702Z,185
2023-04-25T06:51:23.853Z,213
2023-04-25T06:52:39.983Z,196
2023-04-25T06:53:56.120Z,202
2023-04-25T06:55:12.255Z,196
2023-04-25T06:56:28.396Z,168
2023-04-25T06:57:44.515Z,146
2023-04-25T06:59:00.724Z,174
2023-04-25T07:00:15.957Z,196
2023-04-25T07:01:31.157Z,264
2023-04-25T07:02:47.304Z,236
2023-04-25T07:04:03.449Z,247
2023-04-25T07:05:19.573Z,180
2023-04-25T07:06:35.715Z,230
2023-04-25T07:07:51.849Z,225
2023-04-25T07:09:07.000Z,219
2023-04-25T07:10:24.122Z,275
2023-04-25T07:11:40.253Z,185
2023-04-25T07:12:56.385Z,174
2023-04-25T07:14:12.525Z,213
2023-04-25T07:15:28.663Z,213
2023-04-25T07:16:44.810Z,230
2023-04-25T07:18:00.946Z,281
2023-04-25T07:19:17.080Z,208
2023-04-25T07:20:33.203Z,410
2023-04-25T07:21:49.347Z,1125
2023-04-25T07:23:05.481Z,1260
2023-04-25T07:24:21.614Z,1305
2023-04-25T07:25:37.757Z,174
2023-04-25T07:26:53.899Z,1507
2023-04-25T07:28:10.031Z,185
2023-04-25T07:29:26.178Z,118
2023-04-25T07:30:42.313Z,219
2023-04-25T07:31:58.437Z,1265
2023-04-25T07:33:14.624Z,483
2023-04-25T07:34:29.871Z,241
2023-04-25T07:35:46.065Z,286
2023-04-25T07:37:01.338Z,731
2023-04-25T07:38:16.577Z,528
2023-04-25T07:39:31.780Z,1552
2023-04-25T07:40:46.923Z,1473
2023-04-25T07:42:03.076Z,1507
2023-04-25T07:43:19.211Z,1372
2023-04-25T07:44:35.336Z,1485
2023-04-25T07:45:51.480Z,1310
2023-04-25T07:47:07.615Z,1271
2023-04-25T07:48:23.000Z,1321
2023-04-25T07:49:39.888Z,1411
2023-04-25T07:50:56.031Z,1378
2023-04-25T07:52:12.158Z,360
2023-04-25T07:53:28.281Z,1248
2023-04-25T07:54:44.443Z,382
2023-04-25T07:56:00.569Z,1535
2023-04-25T07:57:16.707Z,416
2023-04-25T07:58:32.842Z,337
2023-04-25T07:59:48.970Z,337
2023-04-25T08:01:05.114Z,331
2023-04-25T08:02:21.248Z,1670
2023-04-25T08:03:37.379Z,1693
2023-04-25T08:04:53.517Z,1648
2023-04-25T08:06:09.652Z,1513
2023-04-25T08:07:25.801Z,1766
2023-04-25T08:08:41.927Z,1608
2023-04-25T08:09:58.065Z,967
2023-04-25T08:11:14.200Z,826
2023-04-25T08:12:30.325Z,495
2023-04-25T08:13:46.481Z,641
2023-04-25T08:15:02.611Z,1276
2023-04-25T08:16:18.759Z,877
2023-04-25T08:17:34.889Z,1237
2023-04-25T08:18:51.018Z,421
2023-04-25T08:20:07.163Z,157
2023-04-25T08:21:23.296Z,151
2023-04-25T08:22:39.441Z,320
2023-04-25T08:23:55.569Z,2193
2023-04-25T08:25:11.693Z,1046
2023-04-25T08:26:27.839Z,371
2023-04-25T08:27:44.033Z,337
2023-04-25T08:28:59.249Z,2131
2023-04-25T08:30:15.373Z,658
2023-04-25T08:31:31.537Z,540
2023-04-25T08:32:47.656Z,174
2023-04-25T08:34:03.788Z,219
2023-04-25T08:35:19.930Z,270
2023-04-25T08:36:36.061Z,275
2023-04-25T08:37:52.213Z,315
2023-04-25T08:39:08.335Z,331
2023-04-25T08:40:24.472Z,219
2023-04-25T08:41:40.606Z,163
2023-04-25T08:42:56.862Z,146
2023-04-25T08:44:13.008Z,118
2023-04-25T08:45:29.149Z,129
2023-04-25T08:46:45.278Z,112
2023-04-25T08:48:01.415Z,135
2023-04-25T08:49:17.549Z,191
2023-04-25T08:50:33.695Z,253
2023-04-25T08:51:49.837Z,286
2023-04-25T08:53:05.973Z,337
2023-04-25T08:54:22.100Z,652
2023-04-25T08:55:38.231Z,641
2023-04-25T08:56:54.376Z,1344
2023-04-25T08:58:10.518Z,1513
2023-04-25T08:59:26.645Z,540
2023-04-25T09:00:42.778Z,703
2023-04-25T09:01:58.921Z,945
2023-04-25T09:03:15.065Z,2008
2023-04-25T09:04:31.196Z,2013
2023-04-25T09:05:47.326Z,2430
2023-04-25T09:07:03.454Z,2368
2023-04-25T09:08:19.606Z,2002
2023-04-25T09:09:35.742Z,545
2023-04-25T09:10:51.884Z,253
2023-04-25T09:12:08.007Z,196
2023-04-25T09:13:24.151Z,180
2023-04-25T09:14:40.280Z,185
2023-04-25T09:15:56.425Z,146
2023-04-25T09:17:12.552Z,123
2023-04-25T09:18:28.696Z,129
2023-04-25T09:19:44.825Z,123
2023-04-25T09:21:00.963Z,118
2023-04-25T09:22:17.107Z,106
2023-04-25T09:23:33.244Z,106
2023-04-25T09:24:49.383Z,118
2023-04-25T09:26:05.501Z,106
2023-04-25T09:27:21.642Z,129
2023-04-25T09:28:37.793Z,140
2023-04-25T09:29:53.976Z,135
2023-04-25T09:31:09.182Z,123
2023-04-25T09:32:25.321Z,112
2023-04-25T09:33:41.478Z,112
2023-04-25T09:34:57.612Z,112
2023-04-25T09:36:13.746Z,129
2023-04-25T09:37:29.863Z,129
2023-04-25T09:38:46.015Z,135
2023-04-25T09:40:02.151Z,146
2023-04-25T09:41:18.296Z,151
2023-04-25T09:42:34.427Z,157
2023-04-25T09:43:50.558Z,168
2023-04-25T09:45:06.693Z,180
2023-04-25T09:46:22.841Z,202
2023-04-25T09:47:38.973Z,241
2023-04-25T09:48:55.109Z,298
2023-04-25T09:51:27.000Z,365
2023-04-25T09:52:43.589Z,1046
2023-04-25T09:53:59.715Z,1006
2023-04-25T09:55:15.858Z,1046
2023-04-25T09:56:31.977Z,264
2023-04-25T09:57:48.113Z,1237
2023-04-25T09:59:04.263Z,410
2023-04-25T10:00:20.403Z,281
2023-04-25T10:01:36.527Z,174
2023-04-25T10:02:52.733Z,129
2023-04-25T10:04:07.965Z,106
2023-04-25T10:05:23.185Z,90
2023-04-25T10:06:38.332Z,78
2023-04-25T10:07:54.469Z,78
2023-04-25T10:09:10.605Z,90
2023-04-25T10:10:26.744Z,84
2023-04-25T10:11:42.869Z,95
2023-04-25T10:12:59.007Z,90
2023-04-25T10:14:15.150Z,90
2023-04-25T10:15:31.299Z,101
2023-04-25T10:16:47.418Z,123
2023-04-25T10:18:03.568Z,140
2023-04-25T10:19:19.698Z,151
2023-04-25T10:20:35.834Z,174
2023-04-25T10:21:51.980Z,196
2023-04-25T10:23:08.108Z,292
2023-04-25T10:24:24.232Z,450
2023-04-25T10:25:40.378Z,360
2023-04-25T10:26:56.524Z,270
2023-04-25T10:28:12.647Z,213
2023-04-25T10:29:28.787Z,191
2023-04-25T10:30:44.928Z,174
2023-04-25T10:32:01.050Z,140
2023-04-25T10:33:17.204Z,129
2023-04-25T10:34:33.334Z,112
2023-04-25T10:35:49.480Z,118
2023-04-25T10:37:05.611Z,135
2023-04-25T10:38:21.743Z,135
2023-04-25T10:39:37.885Z,174
2023-04-25T10:40:54.030Z,174
2023-04-25T10:42:10.159Z,185
2023-04-25T10:43:26.285Z,270
2023-04-25T10:44:42.418Z,399
2023-04-25T10:45:58.578Z,691
2023-04-25T10:47:14.696Z,523
2023-04-25T10:48:30.832Z,360
2023-04-25T10:49:46.961Z,478
2023-04-25T10:51:03.093Z,337
2023-04-25T10:52:19.259Z,303
2023-04-25T10:53:35.450Z,253
2023-04-25T10:54:50.684Z,236
2023-04-25T10:56:05.892Z,230
2023-04-25T10:57:22.029Z,213
2023-04-25T10:58:38.167Z,196
2023-04-25T10:59:54.299Z,163
2023-04-25T11:01:10.420Z,163
2023-04-25T11:02:26.580Z,151
2023-04-25T11:03:42.709Z,129
2023-04-25T11:04:58.000Z,135
2023-04-25T11:06:14.978Z,258
2023-04-25T11:07:31.110Z,1186
2023-04-25T11:08:47.244Z,1423
2023-04-25T11:10:03.379Z,1451
2023-04-25T11:11:19.518Z,1417
2023-04-25T11:12:35.665Z,1378
2023-04-25T11:13:51.797Z,1355
2023-04-25T11:15:07.927Z,1361
2023-04-25T11:16:24.061Z,1366
2023-04-25T11:17:40.196Z,1333
2023-04-25T11:18:56.345Z,1338
2023-04-25T11:20:12.480Z,1350
2023-04-25T11:21:28.621Z,1006
2023-04-25T11:22:44.745Z,461
2023-04-25T11:24:00.885Z,343
2023-04-25T11:25:17.022Z,258
2023-04-25T11:26:33.152Z,219
2023-04-25T11:27:49.357Z,236
2023-04-25T11:29:04.596Z,264
2023-04-25T11:30:19.813Z,270
2023-04-25T11:31:35.945Z,225
2023-04-25T11:32:52.087Z,185
2023-04-25T11:34:08.211Z,123
2023-04-25T11:35:24.348Z,95
2023-04-25T11:36:40.486Z,106
2023-04-25T11:37:56.642Z,95
2023-04-25T11:39:12.772Z,84
2023-04-25T11:40:28.895Z,78
2023-04-25T11:41:45.032Z,78
2023-04-25T11:43:01.176Z,84
2023-04-25T11:44:17.307Z,84
2023-04-25T11:45:33.440Z,95
2023-04-25T11:46:49.572Z,135
2023-04-25T11:48:05.721Z,163
2023-04-25T11:49:21.850Z,180
2023-04-25T11:50:37.992Z,180
2023-04-25T11:51:54.125Z,191
2023-04-25T11:53:10.271Z,230
2023-04-25T11:54:26.392Z,286
2023-04-25T11:55:42.530Z,348
2023-04-25T11:56:58.685Z,371
2023-04-25T11:58:14.803Z,376
2023-04-25T11:59:30.936Z,376
2023-04-25T12:00:47.073Z,382
2023-04-25T12:02:03.273Z,393
2023-04-25T12:03:18.512Z,337
2023-04-25T12:04:33.725Z,315
2023-04-25T12:05:49.861Z,292
2023-04-25T12:07:06.004Z,236
2023-04-25T12:08:22.138Z,180
2023-04-25T12:09:38.262Z,157
2023-04-25T12:10:54.395Z,146
2023-04-25T12:12:10.545Z,129
2023-04-25T12:13:26.678Z,135
2023-04-25T12:14:42.815Z,135
2023-04-25T12:15:58.954Z,123
2023-04-25T12:17:15.082Z,118
2023-04-25T12:18:31.228Z,112
2023-04-25T12:19:47.371Z,112
2023-04-25T12:21:03.505Z,101
2023-04-25T12:22:19.634Z,95
2023-04-25T12:23:35.773Z,90
2023-04-25T12:24:51.893Z,101
2023-04-25T12:26:08.055Z,118
2023-04-25T12:27:24.180Z,135
2023-04-25T12:28:40.315Z,146
2023-04-25T12:29:56.445Z,151
2023-04-25T12:31:12.579Z,157
2023-04-25T12:32:28.740Z,157
2023-04-25T12:33:44.869Z,157
2023-04-25T12:35:01.003Z,151
2023-04-25T12:36:17.186Z,157
2023-04-25T12:37:32.457Z,174
2023-04-25T12:38:47.708Z,202
2023-04-25T12:40:02.910Z,247
2023-04-25T12:41:19.043Z,275
2023-04-25T12:42:35.181Z,275
2023-04-25T12:43:51.316Z,270
2023-04-25T12:45:07.441Z,247
2023-04-25T12:46:23.589Z,191
2023-04-25T12:47:39.729Z,140
2023-04-25T12:48:55.862Z,112
2023-04-25T12:50:12.003Z,101
2023-04-25T12:51:28.129Z,95
2023-04-25T12:52:44.261Z,90
2023-04-25T12:54:00.415Z,90
2023-04-25T12:55:16.550Z,90
2023-04-25T12:56:32.683Z,90
2023-04-25T12:57:48.811Z,95
2023-04-25T12:59:04.938Z,95
2023-04-25T13:00:21.088Z,101
2023-04-25T13:01:37.230Z,101
2023-04-25T13:02:53.360Z,106
2023-04-25T13:04:09.491Z,129
2023-04-25T13:05:25.632Z,151
2023-04-25T13:06:41.771Z,168
2023-04-25T13:07:57.902Z,185
2023-04-25T13:09:14.040Z,191
2023-04-25T13:10:30.184Z,202
2023-04-25T13:11:46.363Z,213
2023-04-25T13:13:01.602Z,196
2023-04-25T13:14:16.819Z,185
2023-04-25T13:15:32.952Z,174
2023-04-25T13:16:49.096Z,180
2023-04-25T13:18:05.217Z,191
2023-04-25T13:19:21.362Z,185
2023-04-25T13:20:37.493Z,191
2023-04-25T13:21:53.632Z,168
2023-04-25T13:23:09.782Z,146
2023-04-25T13:24:25.910Z,123
2023-04-25T13:25:42.029Z,101
2023-04-25T13:26:58.173Z,95
2023-04-25T13:28:14.298Z,112
2023-04-25T13:29:30.458Z,151
2023-04-25T13:30:46.595Z,191
2023-04-25T13:32:02.722Z,180
2023-04-25T13:33:18.859Z,174
2023-04-25T13:34:34.988Z,180
2023-04-25T13:35:51.143Z,151
2023-04-25T13:37:07.259Z,146
2023-04-25T13:38:23.405Z,135
2023-04-25T13:39:39.525Z,123
2023-04-25T13:40:55.674Z,101
2023-04-25T13:42:11.818Z,90
2023-04-25T13:43:27.945Z,84
2023-04-25T13:44:44.073Z,73
2023-04-25T13:46:00.265Z,78
2023-04-25T13:47:15.514Z,78
2023-04-25T13:48:30.715Z,78
2023-04-25T13:49:45.877Z,73
2023-04-25T13:51:02.015Z,73
2023-04-25T13:52:18.148Z,78
2023-04-25T13:53:34.283Z,73
2023-04-25T13:54:50.428Z,73
2023-04-25T13:56:06.557Z,78
2023-04-25T13:57:22.704Z,78
2023-04-25T13:58:38.828Z,106
2023-04-25T13:59:54.967Z,146
2023-04-25T14:01:11.105Z,157
2023-04-25T14:02:27.239Z,168
2023-04-25T14:03:43.384Z,163
2023-04-25T14:04:59.517Z,157
2023-04-25T14:06:15.654Z,157
2023-04-25T14:07:31.791Z,163
2023-04-25T14:08:47.926Z,168
2023-04-25T14:10:04.057Z,174
2023-04-25T14:11:20.192Z,157
2023-04-25T14:12:36.324Z,151
2023-04-25T14:13:52.474Z,146
2023-04-25T14:15:08.591Z,140
2023-04-25T14:16:24.742Z,146
2023-04-25T14:17:40.890Z,140
2023-04-25T14:18:57.019Z,146
2023-04-25T14:20:13.143Z,157
2023-04-25T14:21:29.289Z,163
2023-04-25T14:22:45.431Z,168
2023-04-25T14:24:01.555Z,135
2023-04-25T14:25:17.703Z,123
2023-04-25T14:26:33.837Z,135
2023-04-25T14:27:49.970Z,135
2023-04-25T14:29:06.122Z,129
2023-04-25T14:30:22.253Z,129
2023-04-25T14:31:38.376Z,135
2023-04-25T14:32:54.511Z,135
2023-04-25T14:34:10.648Z,146
2023-04-25T14:35:26.802Z,140
2023-04-25T14:36:42.997Z,135
2023-04-25T14:37:58.239Z,135
2023-04-25T14:39:13.450Z,129
2023-04-25T14:40:29.579Z,106
2023-04-25T14:41:45.732Z,78
2023-04-25T14:43:01.861Z,61
2023-04-25T14:44:17.981Z,50
2023-04-25T14:45:34.138Z,50
2023-04-25T14:46:50.263Z,56
2023-04-25T14:48:06.406Z,61
2023-04-25T14:49:22.540Z,67
2023-04-25T14:50:38.675Z,50
2023-04-25T14:51:54.816Z,50
2023-04-25T14:53:10.944Z,56
2023-04-25T14:54:27.079Z,56
2023-04-25T14:55:43.211Z,56
2023-04-25T14:56:59.360Z,56
2023-04-25T14:58:15.493Z,50
2023-04-25T14:59:31.643Z,50
2023-04-25T15:00:47.761Z,50
2023-04-25T15:02:03.901Z,56
2023-04-25T15:03:20.024Z,61
2023-04-25T15:04:36.189Z,73
2023-04-25T15:05:52.306Z,78
2023-04-25T15:07:08.448Z,61
2023-04-25T15:08:24.587Z,61
2023-04-25T15:09:40.716Z,67
2023-04-25T15:10:56.914Z,84
2023-04-25T15:12:12.164Z,95
2023-04-25T15:13:27.374Z,95
2023-04-25T15:14:43.508Z,106
2023-04-25T15:15:59.646Z,118
2023-04-25T15:17:15.776Z,123
2023-04-25T15:18:31.903Z,112
2023-04-25T15:19:48.049Z,112
2023-04-25T15:21:04.188Z,112
2023-04-25T15:22:20.328Z,118
2023-04-25T15:23:36.457Z,123
2023-04-25T15:24:52.597Z,129
2023-04-25T15:26:08.729Z,123
2023-04-25T15:27:24.871Z,129
2023-04-25T15:28:40.998Z,95
2023-04-25T15:29:57.136Z,84
2023-04-25T15:31:13.269Z,84
2023-04-25T15:32:29.406Z,95
2023-04-25T15:33:45.561Z,90
2023-04-25T15:35:01.678Z,90
2023-04-25T15:36:17.816Z,84
2023-04-25T15:37:33.947Z,73
2023-04-25T15:38:50.091Z,61
2023-04-25T15:40:06.236Z,56
2023-04-25T15:41:22.361Z,56
2023-04-25T15:42:38.491Z,56
2023-04-25T15:43:54.634Z,56
2023-04-25T15:45:10.816Z,50
2023-04-25T15:46:26.061Z,45
2023-04-25T15:47:42.253Z,45
2023-04-25T15:48:57.470Z,39
2023-04-25T15:50:13.603Z,39
2023-04-25T15:51:29.730Z,39
2023-04-25T15:52:45.870Z,39
2023-04-25T15:54:02.002Z,39
2023-04-25T15:55:18.138Z,39
2023-04-25T15:56:34.283Z,33
2023-04-25T15:57:50.413Z,33
2023-04-25T15:59:06.562Z,33
2023-04-25T16:00:22.689Z,39
2023-04-25T16:01:38.812Z,45
2023-04-25T16:02:54.963Z,61
2023-04-25T16:04:11.106Z,67
2023-04-25T16:05:27.235Z,61
2023-04-25T16:06:43.361Z,61
2023-04-25T16:07:59.504Z,67
2023-04-25T16:09:15.657Z,73
2023-04-25T16:10:31.782Z,67
2023-04-25T16:11:47.923Z,56
2023-04-25T16:13:04.039Z,45
2023-04-25T16:14:20.188Z,39
2023-04-25T16:15:36.332Z,33
2023-04-25T16:16:52.470Z,33
2023-04-25T16:18:08.594Z,39
2023-04-25T16:19:24.720Z,45
2023-04-25T16:20:40.916Z,50
2023-04-25T16:21:56.158Z,56
2023-04-25T16:23:11.357Z,50
2023-04-25T16:24:27.504Z,45
2023-04-25T16:25:43.646Z,39
2023-04-25T16:26:59.786Z,56
2023-04-25T16:28:15.919Z,50
2023-04-25T16:29:32.052Z,50
2023-04-25T16:30:48.188Z,45
2023-04-25T16:32:04.321Z,39
2023-04-25T16:33:20.451Z,39
2023-04-25T16:34:36.585Z,39
2023-04-25T16:35:52.730Z,45
2023-04-25T16:37:08.860Z,45
2023-04-25T16:38:25.014Z,45
2023-04-25T16:39:41.135Z,45
2023-04-25T16:40:57.275Z,45
2023-04-25T16:42:13.410Z,45
2023-04-25T16:43:29.539Z,45
2023-04-25T16:44:45.677Z,45
2023-04-25T16:46:01.829Z,39
2023-04-25T16:47:17.952Z,39
2023-04-25T16:48:34.086Z,39
2023-04-25T16:49:50.225Z,39
2023-04-25T16:51:06.375Z,39
2023-04-25T16:52:22.501Z,39
2023-04-25T16:53:38.624Z,45
2023-04-25T16:54:54.816Z,45
2023-04-25T16:56:10.055Z,45
2023-04-25T16:57:25.272Z,45
2023-04-25T16:58:40.418Z,45
2023-04-25T16:59:56.561Z,45
2023-04-25T17:01:12.701Z,45
2023-04-25T17:02:28.825Z,45
2023-04-25T17:03:44.967Z,45
2023-04-25T17:05:01.102Z,45
2023-04-25T17:06:17.252Z,45
2023-04-25T17:07:33.376Z,39
2023-04-25T17:08:49.507Z,33
2023-04-25T17:10:05.643Z,33
2023-04-25T17:11:21.776Z,28
2023-04-25T17:12:37.920Z,28
2023-04-25T17:13:54.054Z,28
2023-04-25T17:15:10.190Z,28
2023-04-25T17:16:26.321Z,33
2023-04-25T17:18:58.610Z,39
2023-04-25T17:20:14.735Z,33
2023-04-25T17:21:30.872Z,33
2023-04-25T17:22:47.002Z,28
2023-04-25T17:24:03.137Z,22
2023-04-25T17:25:19.298Z,22
2023-04-25T17:26:35.426Z,22
2023-04-25T17:27:51.552Z,16
2023-04-25T17:29:07.689Z,16
2023-04-25T17:30:23.826Z,16
2023-04-25T17:31:39.968Z,16
2023-04-25T17:32:56.104Z,16
2023-04-25T17:34:12.240Z,16
2023-04-25T17:35:28.376Z,16
2023-04-25T17:36:44.503Z,16
2023-04-25T17:38:00.647Z,16
2023-04-25T17:39:16.794Z,16
2023-04-25T17:40:32.917Z,11
2023-04-25T17:41:49.049Z,11
2023-04-25T17:43:05.182Z,11
2023-04-25T17:44:21.334Z,11
2023-04-25T17:45:37.525Z,11
2023-04-25T17:46:52.762Z,11
2023-04-25T17:48:07.976Z,11
2023-04-25T17:49:24.105Z,11
2023-04-25T17:50:40.251Z,11
2023-04-25T17:51:56.370Z,16
2023-04-25T17:53:12.503Z,16
2023-04-25T17:54:28.656Z,16
2023-04-25T17:55:44.789Z,16
2023-04-25T17:57:00.927Z,11
2023-04-25T17:58:17.060Z,11